sensor_id;sensor_type;location;lat;lon;timestamp;temperature;humidity
13336;DHT22;6737;51.480;11.962;2023-06-24T00:02:07;16.50;99.90
13336;DHT22;6737;51.480;11.962;2023-06-24T00:04:33;16.50;99.90
13336;DHT22;6737;51.480;11.962;2023-06-24T00:07:00;16.50;99.90
13336;DHT22;6737;51.480;11.962;2023-06-24T00:09:29;16.50;99.90
13336;DHT22;6737;51.480;11.962;2023-06-24T00:11:56;16.50;99.90
13336;DHT22;6737;51.480;11.962;2023-06-24T00:14:25;16.50;99.90
13336;DHT22;6737;51.480;11.962;2023-06-24T00:16:52;16.50;99.90
13336;DHT22;6737;51.480;11.962;2023-06-24T00:19:20;16.50;99.90
13336;DHT22;6737;51.480;11.962;2023-06-24T00:21:48;16.50;99.90
13336;DHT22;6737;51.480;11.962;2023-06-24T00:24:17;16.50;99.90
13336;DHT22;6737;51.480;11.962;2023-06-24T00:26:47;16.50;99.90
13336;DHT22;6737;51.480;11.962;2023-06-24T00:29:13;16.40;99.90
13336;DHT22;6737;51.480;11.962;2023-06-24T00:31:41;16.40;99.90
13336;DHT22;6737;51.480;11.962;2023-06-24T00:34:07;16.40;99.90
13336;DHT22;6737;51.480;11.962;2023-06-24T00:36:33;16.40;99.90
13336;DHT22;6737;51.480;11.962;2023-06-24T00:39:01;16.40;99.90
13336;DHT22;6737;51.480;11.962;2023-06-24T00:41:33;16.30;99.90
13336;DHT22;6737;51.480;11.962;2023-06-24T00:44:00;16.30;99.90
13336;DHT22;6737;51.480;11.962;2023-06-24T00:46:27;16.30;99.90
13336;DHT22;6737;51.480;11.962;2023-06-24T00:48:56;16.30;99.90
13336;DHT22;6737;51.480;11.962;2023-06-24T00:51:23;16.30;99.90
13336;DHT22;6737;51.480;11.962;2023-06-24T00:53:58;16.30;99.90
13336;DHT22;6737;51.480;11.962;2023-06-24T00:56:33;16.30;99.90
13336;DHT22;6737;51.480;11.962;2023-06-24T00:59:00;16.30;99.90
13336;DHT22;6737;51.480;11.962;2023-06-24T01:01:34;16.30;99.90
13336;DHT22;6737;51.480;11.962;2023-06-24T01:04:02;16.30;99.90
13336;DHT22;6737;51.480;11.962;2023-06-24T01:06:29;16.20;99.90
13336;DHT22;6737;51.480;11.962;2023-06-24T01:08:57;16.20;99.90
13336;DHT22;6737;51.480;11.962;2023-06-24T01:11:27;16.20;99.90
13336;DHT22;6737;51.480;11.962;2023-06-24T01:13:53;16.20;99.90
13336;DHT22;6737;51.480;11.962;2023-06-24T01:19:27;16.20;99.90
13336;DHT22;6737;51.480;11.962;2023-06-24T01:31:31;16.10;99.90
13336;DHT22;6737;51.480;11.962;2023-06-24T01:36:34;16.00;99.90
13336;DHT22;6737;51.480;11.962;2023-06-24T01:39:06;15.90;99.90
13336;DHT22;6737;51.480;11.962;2023-06-24T01:41:58;16.00;99.90
13336;DHT22;6737;51.480;11.962;2023-06-24T01:44:27;15.90;99.90
13336;DHT22;6737;51.480;11.962;2023-06-24T01:46:57;15.90;99.90
13336;DHT22;6737;51.480;11.962;2023-06-24T01:49:24;15.90;99.90
13336;DHT22;6737;51.480;11.962;2023-06-24T01:51:55;15.90;99.90
13336;DHT22;6737;51.480;11.962;2023-06-24T01:54:22;15.90;99.90
13336;DHT22;6737;51.480;11.962;2023-06-24T01:56:51;15.90;99.90
13336;DHT22;6737;51.480;11.962;2023-06-24T01:59:18;15.90;99.90
13336;DHT22;6737;51.480;11.962;2023-06-24T02:01:46;15.80;99.90
13336;DHT22;6737;51.480;11.962;2023-06-24T02:04:13;15.80;99.90
13336;DHT22;6737;51.480;11.962;2023-06-24T02:06:41;15.80;99.90
13336;DHT22;6737;51.480;11.962;2023-06-24T02:09:10;15.80;99.90
13336;DHT22;6737;51.480;11.962;2023-06-24T02:11:37;15.80;99.90
13336;DHT22;6737;51.480;11.962;2023-06-24T02:14:04;15.70;99.90
13336;DHT22;6737;51.480;11.962;2023-06-24T02:16:33;15.70;99.90
13336;DHT22;6737;51.480;11.962;2023-06-24T02:19:00;15.70;99.90
13336;DHT22;6737;51.480;11.962;2023-06-24T02:21:29;15.70;99.90
13336;DHT22;6737;51.480;11.962;2023-06-24T02:23:56;15.70;99.90
13336;DHT22;6737;51.480;11.962;2023-06-24T02:26:22;15.60;99.90
13336;DHT22;6737;51.480;11.962;2023-06-24T02:28:49;15.60;99.90
13336;DHT22;6737;51.480;11.962;2023-06-24T02:31:16;15.60;99.90
13336;DHT22;6737;51.480;11.962;2023-06-24T02:33:43;15.50;99.90
13336;DHT22;6737;51.480;11.962;2023-06-24T02:36:09;15.50;99.90
13336;DHT22;6737;51.480;11.962;2023-06-24T02:38:36;15.50;99.90
13336;DHT22;6737;51.480;11.962;2023-06-24T02:41:01;15.50;99.90
13336;DHT22;6737;51.480;11.962;2023-06-24T02:43:30;15.40;99.90
13336;DHT22;6737;51.480;11.962;2023-06-24T02:45:58;15.40;99.90
13336;DHT22;6737;51.480;11.962;2023-06-24T02:48:26;15.40;99.90
13336;DHT22;6737;51.480;11.962;2023-06-24T02:50:54;15.30;99.90
13336;DHT22;6737;51.480;11.962;2023-06-24T02:53:20;15.30;99.90
13336;DHT22;6737;51.480;11.962;2023-06-24T02:55:46;15.30;99.90
13336;DHT22;6737;51.480;11.962;2023-06-24T02:58:13;15.20;99.90
13336;DHT22;6737;51.480;11.962;2023-06-24T03:00:39;15.20;99.90
13336;DHT22;6737;51.480;11.962;2023-06-24T03:03:06;15.10;99.90
13336;DHT22;6737;51.480;11.962;2023-06-24T03:05:32;15.20;99.90
13336;DHT22;6737;51.480;11.962;2023-06-24T03:07:58;15.20;99.90
13336;DHT22;6737;51.480;11.962;2023-06-24T03:10:25;15.10;99.90
13336;DHT22;6737;51.480;11.962;2023-06-24T03:12:51;15.20;99.90
13336;DHT22;6737;51.480;11.962;2023-06-24T03:15:17;15.10;99.90
13336;DHT22;6737;51.480;11.962;2023-06-24T03:17:44;15.00;99.90
13336;DHT22;6737;51.480;11.962;2023-06-24T03:20:10;14.90;99.90
13336;DHT22;6737;51.480;11.962;2023-06-24T03:22:36;14.90;99.90
13336;DHT22;6737;51.480;11.962;2023-06-24T03:25:02;14.90;99.90
13336;DHT22;6737;51.480;11.962;2023-06-24T03:27:28;14.90;99.90
13336;DHT22;6737;51.480;11.962;2023-06-24T03:29:57;14.90;99.90
13336;DHT22;6737;51.480;11.962;2023-06-24T03:32:22;14.90;99.90
13336;DHT22;6737;51.480;11.962;2023-06-24T03:34:48;14.80;99.90
13336;DHT22;6737;51.480;11.962;2023-06-24T03:37:14;14.80;99.90
13336;DHT22;6737;51.480;11.962;2023-06-24T03:39:40;14.80;99.90
13336;DHT22;6737;51.480;11.962;2023-06-24T03:42:06;14.80;99.90
13336;DHT22;6737;51.480;11.962;2023-06-24T03:44:31;14.70;99.90
13336;DHT22;6737;51.480;11.962;2023-06-24T03:46:57;14.70;99.90
13336;DHT22;6737;51.480;11.962;2023-06-24T03:49:23;14.70;99.90
13336;DHT22;6737;51.480;11.962;2023-06-24T03:51:48;14.70;99.90
13336;DHT22;6737;51.480;11.962;2023-06-24T03:54:14;14.70;99.90
13336;DHT22;6737;51.480;11.962;2023-06-24T03:56:40;14.70;99.90
13336;DHT22;6737;51.480;11.962;2023-06-24T03:59:06;14.70;99.90
13336;DHT22;6737;51.480;11.962;2023-06-24T04:01:33;14.60;99.90
13336;DHT22;6737;51.480;11.962;2023-06-24T04:03:59;14.70;99.90
13336;DHT22;6737;51.480;11.962;2023-06-24T04:06:25;14.80;99.90
13336;DHT22;6737;51.480;11.962;2023-06-24T04:08:50;14.80;99.90
13336;DHT22;6737;51.480;11.962;2023-06-24T04:11:18;14.70;99.90
13336;DHT22;6737;51.480;11.962;2023-06-24T04:13:45;14.80;99.90
13336;DHT22;6737;51.480;11.962;2023-06-24T04:16:14;14.70;99.90
13336;DHT22;6737;51.480;11.962;2023-06-24T04:18:41;14.70;99.90
13336;DHT22;6737;51.480;11.962;2023-06-24T04:21:07;14.70;99.90
13336;DHT22;6737;51.480;11.962;2023-06-24T04:23:33;14.80;99.90
13336;DHT22;6737;51.480;11.962;2023-06-24T04:25:59;14.70;99.90
13336;DHT22;6737;51.480;11.962;2023-06-24T04:28:25;14.80;99.90
13336;DHT22;6737;51.480;11.962;2023-06-24T04:30:51;14.70;99.90
13336;DHT22;6737;51.480;11.962;2023-06-24T04:33:17;14.80;99.90
13336;DHT22;6737;51.480;11.962;2023-06-24T04:35:43;14.80;99.90
13336;DHT22;6737;51.480;11.962;2023-06-24T04:38:10;14.80;99.90
13336;DHT22;6737;51.480;11.962;2023-06-24T04:40:36;14.80;99.90
13336;DHT22;6737;51.480;11.962;2023-06-24T04:43:02;14.80;99.90
13336;DHT22;6737;51.480;11.962;2023-06-24T04:45:28;14.90;99.90
13336;DHT22;6737;51.480;11.962;2023-06-24T04:47:54;14.90;99.90
13336;DHT22;6737;51.480;11.962;2023-06-24T04:50:20;14.90;99.90
13336;DHT22;6737;51.480;11.962;2023-06-24T04:52:55;15.00;99.90
13336;DHT22;6737;51.480;11.962;2023-06-24T04:55:22;15.00;99.90
13336;DHT22;6737;51.480;11.962;2023-06-24T04:57:48;15.00;99.90
13336;DHT22;6737;51.480;11.962;2023-06-24T05:00:14;15.00;99.90
13336;DHT22;6737;51.480;11.962;2023-06-24T05:02:40;15.00;99.90
13336;DHT22;6737;51.480;11.962;2023-06-24T05:05:06;15.10;99.90
13336;DHT22;6737;51.480;11.962;2023-06-24T05:07:32;15.10;99.90
13336;DHT22;6737;51.480;11.962;2023-06-24T05:09:58;15.00;99.90
13336;DHT22;6737;51.480;11.962;2023-06-24T05:12:24;15.00;99.90
13336;DHT22;6737;51.480;11.962;2023-06-24T05:14:52;15.10;99.90
13336;DHT22;6737;51.480;11.962;2023-06-24T05:17:21;15.20;99.90
13336;DHT22;6737;51.480;11.962;2023-06-24T05:19:47;15.30;99.90
13336;DHT22;6737;51.480;11.962;2023-06-24T05:22:12;15.20;99.90
13336;DHT22;6737;51.480;11.962;2023-06-24T05:24:38;15.20;99.90
13336;DHT22;6737;51.480;11.962;2023-06-24T05:27:06;15.30;99.90
13336;DHT22;6737;51.480;11.962;2023-06-24T05:29:33;15.30;99.90
13336;DHT22;6737;51.480;11.962;2023-06-24T05:31:59;15.30;99.90
13336;DHT22;6737;51.480;11.962;2023-06-24T05:34:25;15.40;99.90
13336;DHT22;6737;51.480;11.962;2023-06-24T05:36:51;15.40;99.90
13336;DHT22;6737;51.480;11.962;2023-06-24T05:39:17;15.40;99.90
13336;DHT22;6737;51.480;11.962;2023-06-24T05:41:43;15.40;99.90
13336;DHT22;6737;51.480;11.962;2023-06-24T05:44:09;15.50;99.90
13336;DHT22;6737;51.480;11.962;2023-06-24T05:46:38;15.60;99.90
13336;DHT22;6737;51.480;11.962;2023-06-24T05:49:03;15.70;99.90
13336;DHT22;6737;51.480;11.962;2023-06-24T05:51:29;15.70;99.90
13336;DHT22;6737;51.480;11.962;2023-06-24T05:53:55;15.80;99.90
13336;DHT22;6737;51.480;11.962;2023-06-24T05:56:22;15.90;99.90
13336;DHT22;6737;51.480;11.962;2023-06-24T05:58:50;15.90;99.90
13336;DHT22;6737;51.480;11.962;2023-06-24T06:01:16;16.00;99.90
13336;DHT22;6737;51.480;11.962;2023-06-24T06:03:42;16.00;99.90
13336;DHT22;6737;51.480;11.962;2023-06-24T06:06:08;16.10;99.90
13336;DHT22;6737;51.480;11.962;2023-06-24T06:08:34;16.10;99.90
13336;DHT22;6737;51.480;11.962;2023-06-24T06:11:00;16.10;99.90
13336;DHT22;6737;51.480;11.962;2023-06-24T06:13:31;16.10;99.90
13336;DHT22;6737;51.480;11.962;2023-06-24T06:15:57;16.10;99.90
13336;DHT22;6737;51.480;11.962;2023-06-24T06:18:23;16.10;99.90
13336;DHT22;6737;51.480;11.962;2023-06-24T06:20:49;16.10;99.90
13336;DHT22;6737;51.480;11.962;2023-06-24T06:23:15;16.00;99.90
13336;DHT22;6737;51.480;11.962;2023-06-24T06:25:41;16.00;99.90
13336;DHT22;6737;51.480;11.962;2023-06-24T06:28:07;16.10;99.90
13336;DHT22;6737;51.480;11.962;2023-06-24T06:30:33;16.00;99.90
13336;DHT22;6737;51.480;11.962;2023-06-24T06:32:58;16.10;99.90
13336;DHT22;6737;51.480;11.962;2023-06-24T06:35:24;16.20;99.90
13336;DHT22;6737;51.480;11.962;2023-06-24T06:37:50;16.20;99.90
13336;DHT22;6737;51.480;11.962;2023-06-24T06:40:21;16.30;99.90
13336;DHT22;6737;51.480;11.962;2023-06-24T06:42:47;16.40;99.90
13336;DHT22;6737;51.480;11.962;2023-06-24T06:45:13;16.40;99.90
13336;DHT22;6737;51.480;11.962;2023-06-24T06:47:39;16.40;99.90
13336;DHT22;6737;51.480;11.962;2023-06-24T06:50:05;16.40;99.90
13336;DHT22;6737;51.480;11.962;2023-06-24T06:52:31;16.50;99.90
13336;DHT22;6737;51.480;11.962;2023-06-24T06:54:58;16.50;99.90
13336;DHT22;6737;51.480;11.962;2023-06-24T06:57:23;16.60;99.90
13336;DHT22;6737;51.480;11.962;2023-06-24T06:59:50;16.60;99.90
13336;DHT22;6737;51.480;11.962;2023-06-24T07:02:19;16.80;99.90
13336;DHT22;6737;51.480;11.962;2023-06-24T07:04:45;16.90;99.90
13336;DHT22;6737;51.480;11.962;2023-06-24T07:07:13;16.90;99.90
13336;DHT22;6737;51.480;11.962;2023-06-24T07:09:39;17.10;99.90
13336;DHT22;6737;51.480;11.962;2023-06-24T07:12:06;17.10;99.90
13336;DHT22;6737;51.480;11.962;2023-06-24T07:14:32;17.20;99.90
13336;DHT22;6737;51.480;11.962;2023-06-24T07:16:58;17.20;99.90
13336;DHT22;6737;51.480;11.962;2023-06-24T07:19:24;17.30;99.90
13336;DHT22;6737;51.480;11.962;2023-06-24T07:21:49;17.30;99.90
13336;DHT22;6737;51.480;11.962;2023-06-24T07:24:15;17.20;99.90
13336;DHT22;6737;51.480;11.962;2023-06-24T07:26:41;17.20;99.90
13336;DHT22;6737;51.480;11.962;2023-06-24T07:29:07;17.20;99.90
13336;DHT22;6737;51.480;11.962;2023-06-24T07:31:33;17.30;99.90
13336;DHT22;6737;51.480;11.962;2023-06-24T07:33:59;17.40;99.90
13336;DHT22;6737;51.480;11.962;2023-06-24T07:36:25;17.40;99.90
13336;DHT22;6737;51.480;11.962;2023-06-24T07:38:51;17.50;99.90
13336;DHT22;6737;51.480;11.962;2023-06-24T07:41:17;17.50;99.90
13336;DHT22;6737;51.480;11.962;2023-06-24T07:43:42;17.70;99.90
13336;DHT22;6737;51.480;11.962;2023-06-24T07:46:08;17.80;99.90
13336;DHT22;6737;51.480;11.962;2023-06-24T07:48:34;17.90;99.90
13336;DHT22;6737;51.480;11.962;2023-06-24T07:51:00;18.00;99.90
13336;DHT22;6737;51.480;11.962;2023-06-24T07:53:26;18.10;99.90
13336;DHT22;6737;51.480;11.962;2023-06-24T07:55:52;18.10;99.90
13336;DHT22;6737;51.480;11.962;2023-06-24T07:58:18;18.20;99.90
13336;DHT22;6737;51.480;11.962;2023-06-24T08:00:45;18.20;99.90
13336;DHT22;6737;51.480;11.962;2023-06-24T08:03:13;18.20;99.90
13336;DHT22;6737;51.480;11.962;2023-06-24T08:05:38;18.30;99.90
13336;DHT22;6737;51.480;11.962;2023-06-24T08:08:05;18.40;99.90
13336;DHT22;6737;51.480;11.962;2023-06-24T08:10:31;18.40;99.90
13336;DHT22;6737;51.480;11.962;2023-06-24T08:12:57;18.50;99.90
13336;DHT22;6737;51.480;11.962;2023-06-24T08:15:23;18.50;99.90
13336;DHT22;6737;51.480;11.962;2023-06-24T08:17:54;18.50;99.90
13336;DHT22;6737;51.480;11.962;2023-06-24T08:20:21;18.60;99.90
13336;DHT22;6737;51.480;11.962;2023-06-24T08:22:47;18.70;99.90
13336;DHT22;6737;51.480;11.962;2023-06-24T08:25:13;18.70;99.90
13336;DHT22;6737;51.480;11.962;2023-06-24T08:27:39;18.80;99.90
13336;DHT22;6737;51.480;11.962;2023-06-24T08:30:08;18.80;99.90
13336;DHT22;6737;51.480;11.962;2023-06-24T08:32:34;19.00;99.90
13336;DHT22;6737;51.480;11.962;2023-06-24T08:35:00;19.00;99.90
13336;DHT22;6737;51.480;11.962;2023-06-24T08:37:26;19.00;99.90
13336;DHT22;6737;51.480;11.962;2023-06-24T08:39:52;18.90;99.90
13336;DHT22;6737;51.480;11.962;2023-06-24T08:42:18;18.70;99.90
13336;DHT22;6737;51.480;11.962;2023-06-24T08:44:43;18.60;99.90
13336;DHT22;6737;51.480;11.962;2023-06-24T08:47:09;18.50;99.90
13336;DHT22;6737;51.480;11.962;2023-06-24T08:49:42;18.50;99.90
13336;DHT22;6737;51.480;11.962;2023-06-24T08:52:14;18.60;99.90
13336;DHT22;6737;51.480;11.962;2023-06-24T08:54:45;18.80;99.90
13336;DHT22;6737;51.480;11.962;2023-06-24T08:57:11;18.90;99.90
13336;DHT22;6737;51.480;11.962;2023-06-24T08:59:41;18.90;99.90
13336;DHT22;6737;51.480;11.962;2023-06-24T09:02:07;19.00;99.90
13336;DHT22;6737;51.480;11.962;2023-06-24T09:04:34;18.90;99.90
13336;DHT22;6737;51.480;11.962;2023-06-24T09:07:00;18.90;99.90
13336;DHT22;6737;51.480;11.962;2023-06-24T09:09:26;18.90;99.90
13336;DHT22;6737;51.480;11.962;2023-06-24T09:11:58;18.90;99.90
13336;DHT22;6737;51.480;11.962;2023-06-24T09:14:26;19.20;99.90
13336;DHT22;6737;51.480;11.962;2023-06-24T09:16:57;19.30;99.90
13336;DHT22;6737;51.480;11.962;2023-06-24T09:19:25;19.40;99.90
13336;DHT22;6737;51.480;11.962;2023-06-24T09:22:02;19.30;99.90
13336;DHT22;6737;51.480;11.962;2023-06-24T09:24:35;19.20;99.90
13336;DHT22;6737;51.480;11.962;2023-06-24T09:27:02;19.40;99.90
13336;DHT22;6737;51.480;11.962;2023-06-24T09:29:31;19.40;99.90
13336;DHT22;6737;51.480;11.962;2023-06-24T09:31:57;19.60;99.90
13336;DHT22;6737;51.480;11.962;2023-06-24T09:34:26;19.60;99.90
13336;DHT22;6737;51.480;11.962;2023-06-24T09:36:53;19.70;99.90
13336;DHT22;6737;51.480;11.962;2023-06-24T09:39:20;19.70;99.90
13336;DHT22;6737;51.480;11.962;2023-06-24T09:41:56;19.80;99.90
13336;DHT22;6737;51.480;11.962;2023-06-24T09:44:22;19.80;99.90
13336;DHT22;6737;51.480;11.962;2023-06-24T09:46:48;20.00;99.90
13336;DHT22;6737;51.480;11.962;2023-06-24T09:49:14;20.10;99.90
13336;DHT22;6737;51.480;11.962;2023-06-24T09:51:45;20.20;99.90
13336;DHT22;6737;51.480;11.962;2023-06-24T09:54:13;20.30;99.90
13336;DHT22;6737;51.480;11.962;2023-06-24T09:56:49;20.40;99.90
13336;DHT22;6737;51.480;11.962;2023-06-24T09:59:17;20.40;99.90
13336;DHT22;6737;51.480;11.962;2023-06-24T10:01:46;20.50;99.90
13336;DHT22;6737;51.480;11.962;2023-06-24T10:04:17;20.50;99.90
13336;DHT22;6737;51.480;11.962;2023-06-24T10:06:43;20.50;99.90
13336;DHT22;6737;51.480;11.962;2023-06-24T10:09:10;20.60;99.90
13336;DHT22;6737;51.480;11.962;2023-06-24T10:11:39;20.90;99.90
13336;DHT22;6737;51.480;11.962;2023-06-24T10:14:05;21.00;99.90
13336;DHT22;6737;51.480;11.962;2023-06-24T10:16:31;21.10;99.90
13336;DHT22;6737;51.480;11.962;2023-06-24T10:19:00;21.10;99.90
13336;DHT22;6737;51.480;11.962;2023-06-24T10:21:52;21.20;99.90
13336;DHT22;6737;51.480;11.962;2023-06-24T10:27:03;21.40;99.90
13336;DHT22;6737;51.480;11.962;2023-06-24T10:29:36;21.30;99.90
13336;DHT22;6737;51.480;11.962;2023-06-24T10:32:06;21.50;99.90
13336;DHT22;6737;51.480;11.962;2023-06-24T10:37:00;21.50;99.90
13336;DHT22;6737;51.480;11.962;2023-06-24T10:42:39;21.80;99.90
13336;DHT22;6737;51.480;11.962;2023-06-24T10:47:35;21.80;99.90
13336;DHT22;6737;51.480;11.962;2023-06-24T10:50:01;21.90;99.90
13336;DHT22;6737;51.480;11.962;2023-06-24T10:52:27;22.00;99.90
13336;DHT22;6737;51.480;11.962;2023-06-24T10:54:53;22.10;99.90
13336;DHT22;6737;51.480;11.962;2023-06-24T10:57:27;22.00;99.90
13336;DHT22;6737;51.480;11.962;2023-06-24T10:59:57;22.00;99.90
13336;DHT22;6737;51.480;11.962;2023-06-24T11:02:26;22.10;99.90
13336;DHT22;6737;51.480;11.962;2023-06-24T11:04:54;22.20;99.90
13336;DHT22;6737;51.480;11.962;2023-06-24T11:07:25;22.20;99.90
13336;DHT22;6737;51.480;11.962;2023-06-24T11:09:59;22.30;99.90
13336;DHT22;6737;51.480;11.962;2023-06-24T11:12:26;22.30;99.90
13336;DHT22;6737;51.480;11.962;2023-06-24T11:15:03;22.40;99.90
13336;DHT22;6737;51.480;11.962;2023-06-24T11:17:29;22.50;99.90
13336;DHT22;6737;51.480;11.962;2023-06-24T11:19:57;22.50;99.90
13336;DHT22;6737;51.480;11.962;2023-06-24T11:22:24;22.50;99.90
13336;DHT22;6737;51.480;11.962;2023-06-24T11:24:50;22.60;99.90
13336;DHT22;6737;51.480;11.962;2023-06-24T11:27:16;22.70;99.90
13336;DHT22;6737;51.480;11.962;2023-06-24T11:29:44;22.70;99.90
13336;DHT22;6737;51.480;11.962;2023-06-24T11:32:10;22.70;99.90
13336;DHT22;6737;51.480;11.962;2023-06-24T11:34:37;22.70;99.90
13336;DHT22;6737;51.480;11.962;2023-06-24T11:37:12;22.70;99.90
13336;DHT22;6737;51.480;11.962;2023-06-24T11:39:39;22.70;99.90
13336;DHT22;6737;51.480;11.962;2023-06-24T11:42:08;22.70;99.90
13336;DHT22;6737;51.480;11.962;2023-06-24T11:44:35;22.60;99.90
13336;DHT22;6737;51.480;11.962;2023-06-24T11:47:08;22.70;99.90
13336;DHT22;6737;51.480;11.962;2023-06-24T11:49:55;22.60;99.90
13336;DHT22;6737;51.480;11.962;2023-06-24T11:52:39;22.70;99.90
13336;DHT22;6737;51.480;11.962;2023-06-24T11:55:26;22.80;99.90
13336;DHT22;6737;51.480;11.962;2023-06-24T11:58:02;22.80;99.90
13336;DHT22;6737;51.480;11.962;2023-06-24T12:00:38;23.00;99.90
13336;DHT22;6737;51.480;11.962;2023-06-24T12:03:06;23.00;99.90
13336;DHT22;6737;51.480;11.962;2023-06-24T12:05:33;22.90;99.90
13336;DHT22;6737;51.480;11.962;2023-06-24T12:08:05;22.90;99.90
13336;DHT22;6737;51.480;11.962;2023-06-24T12:10:32;22.90;99.90
13336;DHT22;6737;51.480;11.962;2023-06-24T12:12:59;22.90;99.90
13336;DHT22;6737;51.480;11.962;2023-06-24T12:15:26;22.90;99.90
13336;DHT22;6737;51.480;11.962;2023-06-24T12:17:53;22.80;99.90
13336;DHT22;6737;51.480;11.962;2023-06-24T12:20:19;22.90;99.90
13336;DHT22;6737;51.480;11.962;2023-06-24T12:22:46;22.90;99.90
13336;DHT22;6737;51.480;11.962;2023-06-24T12:25:13;22.90;99.90
13336;DHT22;6737;51.480;11.962;2023-06-24T12:27:39;23.00;99.90
13336;DHT22;6737;51.480;11.962;2023-06-24T12:30:06;23.00;99.90
13336;DHT22;6737;51.480;11.962;2023-06-24T12:32:32;22.90;99.90
13336;DHT22;6737;51.480;11.962;2023-06-24T12:34:58;23.00;99.90
13336;DHT22;6737;51.480;11.962;2023-06-24T12:37:24;23.00;99.90
13336;DHT22;6737;51.480;11.962;2023-06-24T12:39:50;23.00;99.90
13336;DHT22;6737;51.480;11.962;2023-06-24T12:42:19;23.10;99.90
13336;DHT22;6737;51.480;11.962;2023-06-24T12:44:44;23.10;99.90
13336;DHT22;6737;51.480;11.962;2023-06-24T12:47:10;23.00;99.90
13336;DHT22;6737;51.480;11.962;2023-06-24T12:49:36;23.00;99.90
13336;DHT22;6737;51.480;11.962;2023-06-24T12:52:02;23.00;99.90
13336;DHT22;6737;51.480;11.962;2023-06-24T12:54:27;23.10;99.90
13336;DHT22;6737;51.480;11.962;2023-06-24T12:56:53;23.10;99.90
13336;DHT22;6737;51.480;11.962;2023-06-24T12:59:19;23.20;99.90
13336;DHT22;6737;51.480;11.962;2023-06-24T13:01:45;23.20;99.90
13336;DHT22;6737;51.480;11.962;2023-06-24T13:04:11;23.30;99.90
13336;DHT22;6737;51.480;11.962;2023-06-24T13:06:37;23.30;99.90
13336;DHT22;6737;51.480;11.962;2023-06-24T13:09:03;23.30;99.90
13336;DHT22;6737;51.480;11.962;2023-06-24T13:11:28;23.30;99.90
13336;DHT22;6737;51.480;11.962;2023-06-24T13:13:54;23.20;99.90
13336;DHT22;6737;51.480;11.962;2023-06-24T13:16:20;23.20;99.90
13336;DHT22;6737;51.480;11.962;2023-06-24T13:18:47;23.30;99.90
13336;DHT22;6737;51.480;11.962;2023-06-24T13:21:13;23.30;99.90
13336;DHT22;6737;51.480;11.962;2023-06-24T13:23:39;23.30;99.90
13336;DHT22;6737;51.480;11.962;2023-06-24T13:26:06;23.20;99.90
13336;DHT22;6737;51.480;11.962;2023-06-24T13:28:32;23.20;99.90
13336;DHT22;6737;51.480;11.962;2023-06-24T13:30:58;23.20;99.90
13336;DHT22;6737;51.480;11.962;2023-06-24T13:33:24;23.10;99.90
13336;DHT22;6737;51.480;11.962;2023-06-24T13:35:51;23.00;99.90
13336;DHT22;6737;51.480;11.962;2023-06-24T13:38:17;23.10;99.90
13336;DHT22;6737;51.480;11.962;2023-06-24T13:40:43;23.10;99.90
13336;DHT22;6737;51.480;11.962;2023-06-24T13:43:08;23.10;99.90
13336;DHT22;6737;51.480;11.962;2023-06-24T13:45:34;23.20;99.90
13336;DHT22;6737;51.480;11.962;2023-06-24T13:48:00;23.30;99.90
13336;DHT22;6737;51.480;11.962;2023-06-24T13:50:26;23.40;99.90
13336;DHT22;6737;51.480;11.962;2023-06-24T13:52:51;23.40;99.90
13336;DHT22;6737;51.480;11.962;2023-06-24T13:55:17;23.40;99.90
13336;DHT22;6737;51.480;11.962;2023-06-24T13:57:43;23.40;99.90
13336;DHT22;6737;51.480;11.962;2023-06-24T14:00:09;23.50;99.90
13336;DHT22;6737;51.480;11.962;2023-06-24T14:02:36;23.50;99.90
13336;DHT22;6737;51.480;11.962;2023-06-24T14:05:02;23.50;99.90
13336;DHT22;6737;51.480;11.962;2023-06-24T14:07:28;23.50;99.90
13336;DHT22;6737;51.480;11.962;2023-06-24T14:09:55;23.40;99.90
13336;DHT22;6737;51.480;11.962;2023-06-24T14:12:20;23.40;99.90
13336;DHT22;6737;51.480;11.962;2023-06-24T14:14:46;23.40;99.90
13336;DHT22;6737;51.480;11.962;2023-06-24T14:17:12;23.40;99.90
13336;DHT22;6737;51.480;11.962;2023-06-24T14:19:39;23.30;99.90
13336;DHT22;6737;51.480;11.962;2023-06-24T14:22:06;23.30;99.90
13336;DHT22;6737;51.480;11.962;2023-06-24T14:24:33;23.20;99.90
13336;DHT22;6737;51.480;11.962;2023-06-24T14:26:59;23.20;99.90
13336;DHT22;6737;51.480;11.962;2023-06-24T14:29:24;23.30;99.90
13336;DHT22;6737;51.480;11.962;2023-06-24T14:31:51;23.20;99.90
13336;DHT22;6737;51.480;11.962;2023-06-24T14:34:17;23.30;99.90
13336;DHT22;6737;51.480;11.962;2023-06-24T14:36:44;23.30;99.90
13336;DHT22;6737;51.480;11.962;2023-06-24T14:39:13;23.30;99.90
13336;DHT22;6737;51.480;11.962;2023-06-24T14:41:39;23.30;99.90
13336;DHT22;6737;51.480;11.962;2023-06-24T14:44:05;23.60;99.90
13336;DHT22;6737;51.480;11.962;2023-06-24T14:46:31;23.50;99.90
13336;DHT22;6737;51.480;11.962;2023-06-24T14:48:56;23.40;99.90
13336;DHT22;6737;51.480;11.962;2023-06-24T14:51:24;23.40;99.90
13336;DHT22;6737;51.480;11.962;2023-06-24T14:53:50;23.40;99.90
13336;DHT22;6737;51.480;11.962;2023-06-24T14:56:15;23.50;99.90
13336;DHT22;6737;51.480;11.962;2023-06-24T14:58:41;23.50;99.90
13336;DHT22;6737;51.480;11.962;2023-06-24T15:01:07;23.50;99.90
13336;DHT22;6737;51.480;11.962;2023-06-24T15:03:33;23.50;99.90
13336;DHT22;6737;51.480;11.962;2023-06-24T15:05:58;23.60;99.90
13336;DHT22;6737;51.480;11.962;2023-06-24T15:08:24;23.70;99.90
13336;DHT22;6737;51.480;11.962;2023-06-24T15:10:52;23.70;99.90
13336;DHT22;6737;51.480;11.962;2023-06-24T15:13:18;23.60;99.90
13336;DHT22;6737;51.480;11.962;2023-06-24T15:15:44;23.50;99.90
13336;DHT22;6737;51.480;11.962;2023-06-24T15:18:11;23.50;99.90
13336;DHT22;6737;51.480;11.962;2023-06-24T15:20:37;23.50;99.90
13336;DHT22;6737;51.480;11.962;2023-06-24T15:23:02;23.50;99.90
13336;DHT22;6737;51.480;11.962;2023-06-24T15:25:29;23.50;99.90
13336;DHT22;6737;51.480;11.962;2023-06-24T15:27:57;23.50;99.90
13336;DHT22;6737;51.480;11.962;2023-06-24T15:30:23;23.60;99.90
13336;DHT22;6737;51.480;11.962;2023-06-24T15:32:50;23.60;99.90
13336;DHT22;6737;51.480;11.962;2023-06-24T15:35:15;23.50;99.90
13336;DHT22;6737;51.480;11.962;2023-06-24T15:37:41;23.40;99.90
13336;DHT22;6737;51.480;11.962;2023-06-24T15:40:08;23.30;99.90
13336;DHT22;6737;51.480;11.962;2023-06-24T15:42:33;23.10;99.90
13336;DHT22;6737;51.480;11.962;2023-06-24T15:44:59;23.10;99.90
13336;DHT22;6737;51.480;11.962;2023-06-24T15:47:26;23.10;99.90
13336;DHT22;6737;51.480;11.962;2023-06-24T15:49:53;23.10;99.90
13336;DHT22;6737;51.480;11.962;2023-06-24T15:52:18;23.10;99.90
13336;DHT22;6737;51.480;11.962;2023-06-24T15:54:44;23.00;99.90
13336;DHT22;6737;51.480;11.962;2023-06-24T15:57:10;23.00;99.90